Time;durP1;ratioP1;P1;durP2;ratioP2;P2;SDS_P1;SDS_P2;PMS_P1;PMS_P2;Temp;Humidity;BMP_temperature;BMP_pressure;BME280_temperature;BME280_humidity;BME280_pressure;Samples;Min_cycle;Max_cycle;Signal;HPM_P1;HPM_P2
2023/03/21 00:01:55;;;;;;;0.60;0.60;;;;;;;10.40;76.30;95647.97;4376867;32;20192;-47
2023/03/21 00:04:23;;;;;;;0.50;0.50;;;;;;;10.37;76.54;95645.91;4371385;32;20256;-46
2023/03/21 00:06:49;;;;;;;3.33;0.90;;;;;;;10.24;77.27;95642.06;4369178;32;20208;-50
2023/03/21 00:09:15;;;;;;;0.77;0.77;;;;;;;10.30;77.08;95641.72;4370638;32;20239;-46
2023/03/21 00:11:40;;;;;;;0.87;0.60;;;;;;;10.37;76.95;95632.66;4371839;32;20264;-50
2023/03/21 00:14:07;;;;;;;1.13;0.70;;;;;;;10.25;77.43;95627.75;4372040;32;20181;-45
2023/03/21 00:16:34;;;;;;;0.77;0.77;;;;;;;10.40;77.05;95629.41;4373982;32;20195;-47
2023/03/21 00:19:02;;;;;;;0.63;0.63;;;;;;;10.31;77.50;95622.09;4369099;32;20184;-48
2023/03/21 00:21:31;;;;;;;0.50;0.50;;;;;;;10.28;77.55;95627.97;4370313;32;20211;-48
2023/03/21 00:23:57;;;;;;;0.67;0.67;;;;;;;10.41;77.00;95625.69;4368991;32;20228;-46
2023/03/21 00:26:22;;;;;;;0.80;0.80;;;;;;;10.32;77.15;95623.69;4376358;32;20188;-49
2023/03/21 00:28:49;;;;;;;0.73;0.73;;;;;;;10.44;77.11;95625.13;4366725;32;20223;-51
2023/03/21 00:31:14;;;;;;;0.50;0.50;;;;;;;10.36;77.28;95615.94;4372861;32;20204;-46
2023/03/21 00:33:40;;;;;;;0.77;0.77;;;;;;;10.36;77.62;95620.47;4369451;32;20224;-48
2023/03/21 00:36:07;;;;;;;0.60;0.60;;;;;;;10.46;76.84;95615.03;4357633;32;20177;-48
2023/03/21 00:38:35;;;;;;;0.63;0.63;;;;;;;10.42;77.21;95614.78;4376237;32;20199;-46
2023/03/21 00:41:06;;;;;;;1.03;1.03;;;;;;;10.37;77.13;95609.56;4375823;32;20267;-48
2023/03/21 00:43:31;;;;;;;1.70;1.60;;;;;;;10.37;77.62;95603.47;4371467;32;20204;-49
2023/03/21 00:45:57;;;;;;;2.03;1.60;;;;;;;10.50;77.10;95608.06;4369357;32;20281;-49
2023/03/21 00:48:24;;;;;;;0.40;0.40;;;;;;;10.39;77.10;95604.78;4372260;32;20350;-49
2023/03/21 00:50:51;;;;;;;3.37;1.17;;;;;;;10.34;77.34;95599.53;4359950;32;20228;-47
2023/03/21 00:53:16;;;;;;;0.70;0.70;;;;;;;10.51;76.84;95594.53;4363971;32;20180;-47
2023/03/21 00:55:42;;;;;;;0.83;0.70;;;;;;;10.22;77.81;95605.22;4371726;32;20254;-49
2023/03/21 00:58:07;;;;;;;2.30;1.03;;;;;;;10.24;78.03;95597.78;4350101;32;20217;-50
2023/03/21 01:00:35;;;;;;;0.87;0.87;;;;;;;10.38;77.96;95605.06;4351921;32;20193;-47
2023/03/21 01:03:04;;;;;;;1.33;0.70;;;;;;;10.49;77.24;95595.87;4358382;32;20181;-52
2023/03/21 01:08:19;;;;;;;0.83;0.83;;;;;;;10.43;77.22;95595.16;4354606;32;20342;-48
2023/03/21 01:10:46;;;;;;;0.40;0.40;;;;;;;10.61;76.70;95590.94;4355450;32;20217;-47
2023/03/21 01:13:14;;;;;;;0.90;0.90;;;;;;;10.55;77.12;95592.09;4355383;32;20227;-51
2023/03/21 01:15:45;;;;;;;0.93;0.93;;;;;;;10.49;77.37;95590.59;4353010;32;20209;-48
2023/03/21 01:18:11;;;;;;;0.87;0.63;;;;;;;10.19;78.39;95581.94;4356611;32;20223;-47
2023/03/21 01:20:36;;;;;;;1.30;0.60;;;;;;;10.23;78.92;95577.66;4355638;32;20189;-48
2023/03/21 01:23:02;;;;;;;0.97;0.97;;;;;;;10.24;78.74;95578.44;4347172;32;20267;-47
2023/03/21 01:25:27;;;;;;;1.50;1.47;;;;;;;9.95;79.99;95587.25;4359479;32;20215;-46
2023/03/21 01:27:53;;;;;;;0.80;0.80;;;;;;;10.25;78.75;95580.81;4359706;32;20185;-47
2023/03/21 01:30:19;;;;;;;0.57;0.57;;;;;;;10.38;78.40;95581.19;4375649;32;20180;-48
2023/03/21 01:32:45;;;;;;;0.83;0.83;;;;;;;10.16;79.20;95573.75;4355474;32;20196;-48
2023/03/21 01:35:10;;;;;;;0.60;0.60;;;;;;;10.46;78.17;95577.88;4349794;32;20177;-47
2023/03/21 01:37:36;;;;;;;0.60;0.60;;;;;;;10.38;78.07;95575.91;4352435;32;20182;-47
2023/03/21 01:40:03;;;;;;;0.70;0.70;;;;;;;10.37;78.39;95574.31;4353774;32;20195;-55
2023/03/21 01:42:28;;;;;;;0.60;0.60;;;;;;;10.27;78.63;95569.91;4355920;32;20173;-46
2023/03/21 01:44:57;;;;;;;0.50;0.50;;;;;;;10.23;79.14;95571.56;4356370;32;20235;-50
2023/03/21 01:47:24;;;;;;;0.80;0.80;;;;;;;10.27;79.16;95565.41;4342004;32;20189;-49
2023/03/21 01:49:54;;;;;;;1.03;1.03;;;;;;;10.25;78.88;95559.59;4362732;32;20190;-49
2023/03/21 01:52:36;;;;;;;0.43;0.43;;;;;;;10.19;79.17;95555.41;4350432;32;20209;-47
2023/03/21 01:55:05;;;;;;;0.60;0.60;;;;;;;10.36;78.62;95554.97;4352234;32;20185;-50
2023/03/21 01:57:38;;;;;;;0.80;0.80;;;;;;;10.52;77.71;95551.03;4358274;32;20216;-49
2023/03/21 02:00:10;;;;;;;0.60;0.60;;;;;;;10.57;77.38;95552.81;4367876;32;20181;-48
2023/03/21 02:02:36;;;;;;;1.30;1.20;;;;;;;10.60;77.54;95557.53;4361296;32;20184;-46
2023/03/21 02:05:03;;;;;;;1.70;1.33;;;;;;;10.52;77.88;95551.03;4371172;32;20185;-49
2023/03/21 02:07:34;;;;;;;2.43;1.37;;;;;;;10.44;77.99;95550.84;4357655;32;20181;-48
2023/03/21 02:10:02;;;;;;;2.00;1.10;;;;;;;10.38;78.25;95552.03;4359701;32;20189;-50
2023/03/21 02:12:28;;;;;;;0.93;0.93;;;;;;;10.33;78.28;95544.91;4357456;32;20186;-47
2023/03/21 02:14:54;;;;;;;1.00;1.00;;;;;;;10.24;78.61;95542.09;4357580;32;20176;-47
2023/03/21 02:17:31;;;;;;;0.70;0.70;;;;;;;10.24;78.57;95542.09;4359457;32;20193;-49
2023/03/21 02:20:07;;;;;;;1.03;1.03;;;;;;;10.40;78.13;95544.53;4374944;32;20181;-48
2023/03/21 02:22:36;;;;;;;1.43;1.33;;;;;;;10.34;78.33;95549.16;4358667;32;20211;-47
2023/03/21 02:25:03;;;;;;;0.83;0.83;;;;;;;10.27;78.59;95546.84;4357429;32;20190;-54
2023/03/21 02:27:40;;;;;;;0.93;0.93;;;;;;;10.28;78.97;95544.97;4353001;32;20295;-46
2023/03/21 02:30:39;;;;;;;0.73;0.67;;;;;;;10.29;78.92;95550.00;4366709;32;20220;-49
2023/03/21 02:33:37;;;;;;;0.60;0.60;;;;;;;10.45;78.00;95547.13;4365370;32;20176;-50
2023/03/21 02:36:14;;;;;;;1.10;1.10;;;;;;;10.44;78.00;95546.34;4347204;32;20207;-49
2023/03/21 02:38:53;;;;;;;0.60;0.60;;;;;;;10.37;78.30;95545.16;4373923;32;20223;-48
2023/03/21 02:41:31;;;;;;;0.93;0.93;;;;;;;10.38;78.25;95549.37;4372799;32;20227;-46
2023/03/21 02:44:15;;;;;;;0.83;0.83;;;;;;;10.54;77.65;95550.72;4361187;32;20191;-47
2023/03/21 02:46:56;;;;;;;0.77;0.77;;;;;;;10.66;77.02;95549.22;4357418;32;20189;-46
2023/03/21 02:49:41;;;;;;;0.93;0.93;;;;;;;10.65;76.77;95555.59;4356578;32;20272;-50
2023/03/21 02:52:10;;;;;;;0.87;0.87;;;;;;;10.58;77.34;95546.44;4355227;32;20185;-48
2023/03/21 02:54:37;;;;;;;0.77;0.77;;;;;;;10.52;77.96;95539.63;4362410;32;20177;-47
2023/03/21 02:57:03;;;;;;;0.53;0.53;;;;;;;10.57;77.34;95545.66;4352842;32;20204;-47
2023/03/21 02:59:30;;;;;;;1.40;1.30;;;;;;;10.61;77.55;95546.62;4370521;32;20268;-47
2023/03/21 03:01:57;;;;;;;1.90;1.23;;;;;;;10.59;77.12;95548.03;4374627;32;20181;-44
2023/03/21 03:04:27;;;;;;;0.77;0.77;;;;;;;10.57;77.31;95545.66;4366748;32;20195;-45
2023/03/21 03:06:59;;;;;;;1.30;1.30;;;;;;;10.45;77.89;95547.94;4360695;32;20193;-49
2023/03/21 03:09:47;;;;;;;0.97;0.80;;;;;;;10.37;78.24;95553.09;4367019;32;20177;-48
2023/03/21 03:12:45;;;;;;;0.77;0.77;;;;;;;10.45;78.10;95542.63;4371039;32;20185;-47
2023/03/21 03:15:16;;;;;;;0.70;0.70;;;;;;;10.45;77.97;95547.13;4369919;32;20239;-49
2023/03/21 03:17:59;;;;;;;1.20;1.20;;;;;;;10.18;78.93;95540.59;4357738;32;20193;-48
2023/03/21 03:21:14;;;;;;;0.87;0.87;;;;;;;10.13;79.11;95540.63;4361093;32;20196;-47
2023/03/21 03:23:48;;;;;;;0.53;0.53;;;;;;;10.15;79.49;95543.81;4345001;32;20200;-46
2023/03/21 03:26:22;;;;;;;0.60;0.60;;;;;;;10.16;79.11;95540.06;4360584;32;20230;-45
2023/03/21 03:28:52;;;;;;;0.80;0.80;;;;;;;10.24;78.83;95533.38;4375215;32;20184;-49
2023/03/21 03:31:25;;;;;;;0.87;0.87;;;;;;;10.20;78.84;95535.78;4372690;32;20243;-47
2023/03/21 03:33:55;;;;;;;1.77;1.07;;;;;;;10.15;79.10;95541.16;4355716;32;23254;-50
2023/03/21 03:36:26;;;;;;;0.43;0.43;;;;;;;10.00;79.86;95528.06;4359546;32;20255;-47
2023/03/21 03:38:53;;;;;;;0.60;0.60;;;;;;;9.98;79.81;95530.22;4348272;32;20267;-49
2023/03/21 03:41:24;;;;;;;0.70;0.70;;;;;;;10.04;79.85;95531.72;4360536;32;20255;-48
2023/03/21 03:43:54;;;;;;;1.13;1.03;;;;;;;10.18;79.07;95526.53;4368395;32;20188;-48
2023/03/21 03:46:34;;;;;;;0.73;0.73;;;;;;;10.25;78.64;95525.13;4370665;32;20195;-47
2023/03/21 03:49:23;;;;;;;1.60;1.23;;;;;;;10.27;78.33;95524.84;4377275;32;20188;-45
2023/03/21 03:51:54;;;;;;;0.83;0.83;;;;;;;10.26;78.61;95516.09;4353087;32;20178;-50
2023/03/21 03:54:25;;;;;;;0.93;0.93;;;;;;;10.41;77.66;95532.88;4363889;32;20165;-48
2023/03/21 03:56:51;;;;;;;0.30;0.30;;;;;;;10.26;78.16;95528.56;4362208;32;20219;-49
2023/03/21 03:59:23;;;;;;;0.90;0.90;;;;;;;10.41;77.73;95538.16;4352429;32;20186;-47
2023/03/21 04:01:48;;;;;;;1.03;1.03;;;;;;;10.27;77.98;95535.44;4370903;32;20180;-46
2023/03/21 04:04:15;;;;;;;0.33;0.33;;;;;;;10.37;77.87;95534.53;4367409;32;20185;-46
2023/03/21 04:06:50;;;;;;;0.70;0.70;;;;;;;10.27;78.39;95535.44;4355246;32;20226;-45
2023/03/21 04:09:16;;;;;;;0.53;0.53;;;;;;;10.16;79.04;95536.63;4368504;32;20207;-51
2023/03/21 04:11:42;;;;;;;0.80;0.80;;;;;;;10.34;78.56;95538.53;4360432;32;20196;-48
2023/03/21 04:14:08;;;;;;;0.73;0.73;;;;;;;10.53;77.61;95526.06;4355673;32;20240;-48
2023/03/21 04:16:33;;;;;;;0.47;0.47;;;;;;;10.39;78.37;95532.38;4365498;32;20196;-48
2023/03/21 04:18:58;;;;;;;0.43;0.43;;;;;;;10.35;78.62;95526.06;4370345;32;20184;-47
2023/03/21 04:21:24;;;;;;;0.50;0.50;;;;;;;10.33;79.00;95524.50;4353122;32;20192;-46
2023/03/21 04:23:50;;;;;;;0.73;0.73;;;;;;;10.25;79.12;95525.13;4349651;32;20189;-47
2023/03/21 04:26:16;;;;;;;1.10;1.10;;;;;;;10.33;79.06;95527.16;4364589;32;20173;-48
2023/03/21 04:28:41;;;;;;;0.60;0.60;;;;;;;10.45;78.34;95518.75;4365107;32;20173;-49
2023/03/21 04:31:08;;;;;;;0.60;0.60;;;;;;;10.19;79.23;95520.16;4359287;32;20181;-49
2023/03/21 04:33:37;;;;;;;0.43;0.43;;;;;;;10.16;79.64;95518.06;4359196;32;20170;-48
2023/03/21 04:36:05;;;;;;;0.50;0.50;;;;;;;10.24;79.07;95526.19;4354325;32;20189;-45
2023/03/21 04:38:32;;;;;;;0.70;0.70;;;;;;;10.11;79.47;95526.09;4355261;32;20181;-48
2023/03/21 04:40:58;;;;;;;0.67;0.67;;;;;;;10.23;79.10;95521.19;4365162;32;20203;-46
2023/03/21 04:43:25;;;;;;;0.60;0.60;;;;;;;10.18;79.38;95518.59;4360241;32;20228;-46
2023/03/21 04:45:51;;;;;;;0.33;0.33;;;;;;;10.22;79.30;95523.03;4371374;32;20360;-48
2023/03/21 04:48:18;;;;;;;0.87;0.87;;;;;;;10.21;79.14;95518.81;4375651;32;20200;-48
2023/03/21 04:50:44;;;;;;;1.50;1.37;;;;;;;10.06;79.51;95516.34;4369732;32;20248;-45
2023/03/21 04:53:09;;;;;;;0.83;0.83;;;;;;;10.07;79.76;95515.25;4350438;32;20199;-48
2023/03/21 04:55:35;;;;;;;0.60;0.60;;;;;;;10.13;79.50;95508.84;4355202;32;20185;-48
2023/03/21 04:58:04;;;;;;;0.50;0.50;;;;;;;10.24;78.81;95515.59;4359266;32;20259;-49
2023/03/21 05:00:30;;;;;;;0.60;0.60;;;;;;;10.24;79.21;95515.59;4374123;32;20195;-49
2023/03/21 05:02:57;;;;;;;0.80;0.80;;;;;;;10.24;79.20;95523.53;4378657;32;20182;-47
2023/03/21 05:05:23;;;;;;;0.60;0.60;;;;;;;10.35;78.71;95515.47;4372549;32;20195;-49
2023/03/21 05:07:48;;;;;;;0.80;0.80;;;;;;;10.27;78.79;95515.03;4368727;32;20174;-49
2023/03/21 05:10:14;;;;;;;0.90;0.90;;;;;;;10.27;78.85;95522.19;4366301;32;20276;-47
2023/03/21 05:12:40;;;;;;;0.60;0.60;;;;;;;10.14;79.32;95515.72;4367667;32;20189;-46
2023/03/21 05:15:06;;;;;;;0.80;0.80;;;;;;;10.31;78.92;95517.91;4376349;32;20176;-50
2023/03/21 05:17:31;;;;;;;0.70;0.70;;;;;;;10.32;78.92;95514.97;4371298;32;20216;-56
2023/03/21 05:19:56;;;;;;;0.50;0.50;;;;;;;10.15;79.53;95521.81;4371972;32;20240;-49
2023/03/21 05:22:23;;;;;;;0.70;0.70;;;;;;;10.24;79.11;95512.16;4349322;32;20177;-50
2023/03/21 05:24:49;;;;;;;1.17;0.73;;;;;;;10.11;79.68;95516.28;4355341;32;20184;-47
2023/03/21 05:27:34;;;;;;;0.97;0.97;;;;;;;10.28;78.98;95515.81;4359786;32;20237;-49
2023/03/21 05:30:12;;;;;;;0.77;0.77;;;;;;;10.28;79.02;95516.59;4362625;32;20185;-49
2023/03/21 05:32:37;;;;;;;0.63;0.63;;;;;;;10.24;78.99;95514.81;4359086;32;20182;-48
2023/03/21 05:35:05;;;;;;;1.23;1.20;;;;;;;10.03;79.97;95519.56;4375555;32;20172;-46
2023/03/21 05:37:30;;;;;;;0.77;0.77;;;;;;;10.12;79.84;95523.16;4374508;32;20211;-49
2023/03/21 05:39:56;;;;;;;0.93;0.93;;;;;;;10.28;79.25;95511.31;4364230;32;20244;-48
2023/03/21 05:42:22;;;;;;;0.80;0.80;;;;;;;10.14;79.18;95510.41;4368497;32;20260;-51
2023/03/21 05:44:47;;;;;;;1.53;0.90;;;;;;;10.17;79.23;95509.84;4377421;32;20181;-46
2023/03/21 05:47:14;;;;;;;0.80;0.80;;;;;;;10.11;79.32;95515.50;4363660;32;20181;-49
2023/03/21 05:49:39;;;;;;;0.70;0.70;;;;;;;10.29;78.75;95512.88;4361701;32;20185;-50
2023/03/21 05:52:05;;;;;;;0.90;0.83;;;;;;;10.15;79.14;95517.28;4370942;32;20172;-50
2023/03/21 05:54:31;;;;;;;0.40;0.40;;;;;;;10.13;79.37;95514.13;4371172;32;20181;-46
2023/03/21 05:56:56;;;;;;;1.20;1.17;;;;;;;10.31;78.93;95521.34;4374692;32;20192;-46
2023/03/21 05:59:22;;;;;;;0.63;0.63;;;;;;;10.41;78.08;95530.22;4361694;32;20267;-48
2023/03/21 06:01:47;;;;;;;0.60;0.60;;;;;;;10.26;78.42;95523.25;4361258;32;20188;-48
2023/03/21 06:04:13;;;;;;;1.00;0.97;;;;;;;10.31;78.01;95526.63;4370854;32;20249;-48
2023/03/21 06:06:38;;;;;;;0.80;0.80;;;;;;;10.54;77.22;95529.50;4377023;32;20193;-48
2023/03/21 06:09:03;;;;;;;1.00;0.90;;;;;;;10.33;77.76;95523.72;4364317;32;20184;-45
2023/03/21 06:11:35;;;;;;;1.03;1.03;;;;;;;10.30;78.09;95524.28;4360799;32;20193;-46
2023/03/21 06:14:00;;;;;;;0.40;0.40;;;;;;;10.35;78.13;95531.38;4374061;32;20189;-51
2023/03/21 06:16:27;;;;;;;1.17;1.17;;;;;;;10.13;79.17;95535.34;4354513;32;20181;-49
2023/03/21 06:18:54;;;;;;;2.90;1.07;;;;;;;10.02;79.78;95538.38;4363307;32;20184;-48
2023/03/21 06:21:20;;;;;;;0.77;0.77;;;;;;;10.01;79.99;95537.59;4355758;32;20203;-52
2023/03/21 06:23:46;;;;;;;1.40;1.37;;;;;;;10.11;79.89;95537.47;4361477;32;20180;-51
2023/03/21 06:26:12;;;;;;;0.77;0.63;;;;;;;10.06;79.94;95542.84;4361612;32;20180;-47
2023/03/21 06:28:38;;;;;;;0.87;0.87;;;;;;;10.33;78.72;95540.41;4353992;32;20216;-48
2023/03/21 06:31:03;;;;;;;1.07;1.07;;;;;;;10.26;79.04;95536.53;4364249;32;20184;-48
2023/03/21 06:33:28;;;;;;;0.57;0.57;;;;;;;10.25;79.17;95543.69;4367409;32;20188;-50
2023/03/21 06:35:56;;;;;;;1.00;1.00;;;;;;;10.33;78.79;95539.63;4364418;32;20220;-49
2023/03/21 06:38:22;;;;;;;0.77;0.77;;;;;;;10.22;78.65;95536.28;4360473;32;20225;-49
2023/03/21 06:40:48;;;;;;;5.20;0.80;;;;;;;10.29;78.18;95542.03;4356105;32;20240;-47
2023/03/21 06:43:17;;;;;;;0.83;0.83;;;;;;;10.37;77.97;95539.84;4369429;32;20200;-50
2023/03/21 06:45:44;;;;;;;1.33;1.23;;;;;;;10.31;77.96;95545.19;4373902;32;20189;-48
2023/03/21 06:48:10;;;;;;;0.70;0.70;;;;;;;10.36;78.01;95543.56;4357813;32;20189;-50
2023/03/21 06:50:35;;;;;;;2.93;1.03;;;;;;;10.18;78.66;95548.53;4375835;32;20180;-46
2023/03/21 06:53:01;;;;;;;1.50;1.20;;;;;;;10.15;78.82;95543.00;4373154;32;20195;-49
2023/03/21 06:55:27;;;;;;;0.73;0.73;;;;;;;10.32;78.13;95546.00;4368114;32;20177;-46
2023/03/21 06:57:56;;;;;;;2.67;1.30;;;;;;;10.42;77.77;95553.00;4373955;32;20212;-47
2023/03/21 07:00:22;;;;;;;3.10;1.30;;;;;;;10.36;78.00;95554.16;4358669;32;20288;-45
2023/03/21 07:02:48;;;;;;;0.97;0.97;;;;;;;10.65;77.11;95552.16;4373144;32;20189;-46
2023/03/21 07:05:14;;;;;;;5.63;2.23;;;;;;;10.71;76.87;95550.22;4377304;32;20267;-49
2023/03/21 07:07:40;;;;;;;0.60;0.60;;;;;;;10.67;76.51;95550.00;4369488;32;20181;-46
2023/03/21 07:10:06;;;;;;;0.97;0.97;;;;;;;10.58;76.96;95549.09;4365154;32;20177;-48
2023/03/21 07:12:34;;;;;;;0.80;0.80;;;;;;;10.56;75.63;95548.59;4368600;32;20184;-50
2023/03/21 07:15:00;;;;;;;0.93;0.93;;;;;;;10.69;75.34;95547.84;4362396;32;20193;-46
2023/03/21 07:17:25;;;;;;;0.80;0.80;;;;;;;10.56;75.39;95543.28;4373081;32;20203;-47
2023/03/21 07:19:51;;;;;;;1.17;1.17;;;;;;;10.57;76.03;95553.59;4356691;32;20242;-47
2023/03/21 07:22:16;;;;;;;3.30;0.93;;;;;;;10.61;75.90;95545.84;4355548;32;20192;-48
2023/03/21 07:24:42;;;;;;;8.30;0.73;;;;;;;10.54;76.18;95556.03;4359924;32;20197;-47
2023/03/21 07:27:07;;;;;;;0.80;0.80;;;;;;;10.55;75.60;95552.31;4369943;32;20248;-46
2023/03/21 07:29:32;;;;;;;0.80;0.80;;;;;;;10.65;75.80;95552.94;4365086;32;20215;-48
2023/03/21 07:31:58;;;;;;;9.73;2.63;;;;;;;10.52;75.67;95553.66;4362196;32;20275;-55
2023/03/21 07:34:23;;;;;;;4.10;0.93;;;;;;;12.63;92.25;95551.22;4368106;32;20181;-55
2023/03/21 07:36:49;;;;;;;0.70;0.70;;;;;;;13.20;84.50;95543.53;4372057;32;20251;-54
2023/03/21 07:39:14;;;;;;;1.40;1.30;;;;;;;13.56;72.82;95549.53;4352959;32;20252;-52
2023/03/21 07:41:39;;;;;;;1.90;1.53;;;;;;;14.13;71.12;95552.31;4365540;32;20177;-56
2023/03/21 07:44:05;;;;;;;12.20;1.00;;;;;;;14.47;68.06;95548.94;4353445;32;20235;-53
2023/03/21 07:46:30;;;;;;;1.27;0.93;;;;;;;14.71;64.75;95546.62;4378943;32;20211;-52
2023/03/21 07:48:55;;;;;;;0.63;0.63;;;;;;;14.91;65.42;95550.53;4371923;32;20200;-56
2023/03/21 07:51:21;;;;;;;5.30;0.80;;;;;;;14.94;62.73;95547.25;4376448;32;20239;-53
2023/03/21 07:53:47;;;;;;;0.93;0.93;;;;;;;15.11;62.15;95549.13;4360718;32;20185;-55
2023/03/21 07:56:13;;;;;;;0.93;0.93;;;;;;;15.08;61.54;95544.41;4366096;32;20188;-54
2023/03/21 07:58:38;;;;;;;0.90;0.90;;;;;;;15.15;60.44;95546.59;4367192;32;20231;-55
2023/03/21 08:01:04;;;;;;;2.23;1.13;;;;;;;15.01;60.07;95555.56;4370071;32;20184;-55
2023/03/21 08:03:31;;;;;;;0.63;0.63;;;;;;;15.18;60.04;95552.06;4374353;32;20245;-53
2023/03/21 08:05:59;;;;;;;0.70;0.70;;;;;;;15.08;59.28;95545.19;4364982;32;20203;-51
2023/03/21 08:08:24;;;;;;;5.30;0.87;;;;;;;15.27;67.54;95544.06;4370946;32;20208;-53
2023/03/21 08:10:49;;;;;;;0.90;0.90;;;;;;;15.40;72.54;95546.53;4371164;32;20184;-52
2023/03/21 08:13:15;;;;;;;0.87;0.87;;;;;;;15.47;71.44;95544.19;4367215;32;20180;-54
2023/03/21 08:15:41;;;;;;;1.30;1.27;;;;;;;15.62;70.77;95548.25;4368714;32;20173;-53
2023/03/21 08:18:07;;;;;;;0.70;0.70;;;;;;;15.65;67.37;95549.50;4372864;32;20294;-52
2023/03/21 08:20:33;;;;;;;1.33;1.23;;;;;;;15.62;68.45;95542.13;4378319;32;20172;-54
2023/03/21 08:22:59;;;;;;;0.70;0.70;;;;;;;15.62;65.85;95550.13;4371471;32;20224;-55
2023/03/21 08:25:25;;;;;;;0.70;0.70;;;;;;;15.71;64.83;95549.03;4372408;32;20215;-54
2023/03/21 08:27:50;;;;;;;0.83;0.83;;;;;;;15.90;66.31;95545.16;4359488;32;20185;-54
2023/03/21 08:30:27;;;;;;;2.20;2.03;;;;;;;15.96;65.38;95544.69;4369309;32;22723;-54
2023/03/21 08:32:58;;;;;;;1.60;1.50;;;;;;;16.01;64.52;95536.44;4363235;32;20240;-52
2023/03/21 08:35:24;;;;;;;1.00;1.00;;;;;;;15.51;56.36;95538.97;4357050;32;20189;-51
2023/03/21 08:37:49;;;;;;;1.10;1.10;;;;;;;14.52;58.26;95548.78;4348642;32;20207;-52
2023/03/21 08:40:16;;;;;;;1.20;1.10;;;;;;;14.27;59.45;95536.16;4358460;32;20196;-50
2023/03/21 08:42:45;;;;;;;1.53;1.43;;;;;;;14.08;60.08;95541.75;4372031;32;20240;-49
2023/03/21 08:45:11;;;;;;;7.00;1.73;;;;;;;14.04;61.42;95540.81;4374371;32;20287;-50
2023/03/21 08:47:37;;;;;;;0.90;0.90;;;;;;;13.71;60.95;95549.16;4361969;32;20181;-53
2023/03/21 08:50:05;;;;;;;0.90;0.90;;;;;;;13.59;60.87;95550.81;4363771;32;20184;-50
2023/03/21 08:52:31;;;;;;;0.97;0.97;;;;;;;13.54;59.69;95545.59;4369492;32;20193;-50
2023/03/21 08:54:57;;;;;;;1.10;1.10;;;;;;;13.60;60.77;95539.06;4368140;32;20327;-55
2023/03/21 08:57:22;;;;;;;1.20;1.10;;;;;;;13.82;60.28;95544.34;4356182;32;20193;-48
2023/03/21 08:59:48;;;;;;;4.40;1.37;;;;;;;13.71;59.86;95543.84;4368798;32;20226;-47
2023/03/21 09:02:17;;;;;;;0.67;0.67;;;;;;;13.64;60.64;95540.81;4373897;32;20184;-52
2023/03/21 09:04:43;;;;;;;1.57;1.43;;;;;;;13.89;61.97;95527.91;4371188;32;20236;-55
2023/03/21 09:07:11;;;;;;;1.23;1.23;;;;;;;13.97;61.23;95524.44;4372077;32;20180;-49
2023/03/21 09:09:37;;;;;;;0.90;0.90;;;;;;;13.58;61.48;95528.69;4360901;32;20189;-50
2023/03/21 09:12:03;;;;;;;0.70;0.70;;;;;;;13.86;61.97;95523.19;4355849;32;20271;-49
2023/03/21 09:14:28;;;;;;;1.10;1.10;;;;;;;13.84;61.43;95528.81;4367717;32;20216;-52
2023/03/21 09:16:53;;;;;;;1.10;1.10;;;;;;;13.62;61.98;95520.88;4369140;32;20177;-53
2023/03/21 09:19:19;;;;;;;1.97;1.20;;;;;;;13.70;62.54;95523.59;4355979;32;20272;-52
2023/03/21 09:21:45;;;;;;;0.97;0.97;;;;;;;13.77;60.94;95526.59;4358227;32;20177;-50
2023/03/21 09:24:11;;;;;;;1.30;1.30;;;;;;;14.06;61.12;95523.41;4373517;32;20193;-48
2023/03/21 09:26:37;;;;;;;1.07;1.07;;;;;;;14.39;60.94;95526.44;4369741;32;20207;-50
2023/03/21 09:29:04;;;;;;;1.10;1.10;;;;;;;14.42;58.94;95520.50;4350501;32;20260;-50
2023/03/21 09:31:30;;;;;;;0.40;0.40;;;;;;;14.50;59.21;95520.84;4353478;32;20195;-53
2023/03/21 09:33:56;;;;;;;0.87;0.87;;;;;;;14.58;57.97;95517.38;4360642;32;20185;-49
2023/03/21 09:36:26;;;;;;;0.60;0.60;;;;;;;14.40;58.77;95522.69;4366946;32;20213;-53
2023/03/21 09:38:51;;;;;;;0.60;0.60;;;;;;;14.48;59.02;95515.03;4372266;32;20251;-53
2023/03/21 09:41:29;;;;;;;2.80;1.60;;;;;;;14.35;58.53;95520.13;4358521;32;20305;-50
2023/03/21 09:44:13;;;;;;;1.17;1.07;;;;;;;14.38;57.07;95518.72;4364851;32;20244;-49
2023/03/21 09:46:47;;;;;;;0.87;0.87;;;;;;;14.14;57.51;95518.38;4372538;32;20260;-47
2023/03/21 09:49:42;;;;;;;1.30;1.13;;;;;;;13.88;57.85;95524.44;4370882;32;20173;-47
2023/03/21 09:52:42;;;;;;;0.83;0.80;;;;;;;13.97;58.78;95511.13;4369522;32;20210;-49
2023/03/21 09:55:21;;;;;;;1.40;1.30;;;;;;;14.17;57.64;95505.19;4365897;32;20253;-48
2023/03/21 09:57:54;;;;;;;0.63;0.63;;;;;;;14.00;58.24;95515.84;4363716;32;20188;-50
2023/03/21 10:00:28;;;;;;;1.40;1.33;;;;;;;14.03;58.96;95515.22;4352006;32;20189;-48
2023/03/21 10:03:00;;;;;;;1.00;1.00;;;;;;;13.96;59.05;95520.22;4361946;32;20187;-51
2023/03/21 10:05:29;;;;;;;0.97;0.67;;;;;;;14.03;59.25;95512.56;4370264;32;20196;-52
2023/03/21 10:08:08;;;;;;;1.10;1.07;;;;;;;14.19;58.41;95511.00;4373976;32;20212;-48
2023/03/21 10:10:40;;;;;;;1.77;0.77;;;;;;;14.13;59.28;95511.50;4377404;32;20211;-49
2023/03/21 10:13:32;;;;;;;0.97;0.97;;;;;;;14.29;58.98;95518.75;4355536;32;20181;-49
2023/03/21 10:16:03;;;;;;;0.67;0.67;;;;;;;13.98;58.91;95502.00;4367560;32;20229;-51
2023/03/21 10:18:31;;;;;;;0.70;0.70;;;;;;;13.89;59.35;95507.34;4350349;32;20177;-48
2023/03/21 10:20:57;;;;;;;1.13;1.03;;;;;;;14.12;59.19;95500.03;4377528;32;20181;-51
2023/03/21 10:23:27;;;;;;;1.30;1.30;;;;;;;13.93;59.72;95502.16;4357933;32;20246;-49
2023/03/21 10:26:00;;;;;;;2.10;0.93;;;;;;;13.91;60.66;95496.37;4365821;32;20181;-48
2023/03/21 10:28:31;;;;;;;0.73;0.73;;;;;;;14.14;59.03;95492.47;4368777;32;20203;-50
2023/03/21 10:31:03;;;;;;;0.50;0.50;;;;;;;13.96;58.68;95497.00;4372507;32;20180;-60
2023/03/21 10:33:35;;;;;;;0.33;0.33;;;;;;;14.15;59.34;95488.72;4377672;32;20252;-48
2023/03/21 10:36:05;;;;;;;2.83;1.07;;;;;;;14.16;58.91;95482.28;4360553;32;20178;-50
2023/03/21 10:38:31;;;;;;;1.00;1.00;;;;;;;13.89;60.08;95485.22;4360163;32;20323;-52
2023/03/21 10:40:57;;;;;;;0.77;0.77;;;;;;;14.11;59.13;95482.44;4359855;32;20180;-53
2023/03/21 10:43:25;;;;;;;0.63;0.63;;;;;;;13.88;59.58;95476.44;4364304;32;20189;-50
2023/03/21 10:45:51;;;;;;;0.87;0.87;;;;;;;14.09;60.40;95481.97;4376938;32;20185;-52
2023/03/21 10:48:17;;;;;;;0.40;0.40;;;;;;;14.04;59.78;95476.78;4358132;32;20262;-52
2023/03/21 10:50:46;;;;;;;0.67;0.67;;;;;;;14.05;59.69;95473.81;4364330;32;20244;-52
2023/03/21 10:53:17;;;;;;;0.67;0.67;;;;;;;14.00;59.70;95470.50;4361035;32;20217;-48
2023/03/21 10:55:47;;;;;;;0.87;0.87;;;;;;;13.97;59.08;95468.44;4373481;32;20177;-51
2023/03/21 10:58:23;;;;;;;0.50;0.50;;;;;;;13.76;57.70;95471.69;4357500;32;20181;-48
2023/03/21 11:00:56;;;;;;;0.43;0.43;;;;;;;14.08;58.38;95467.06;4351715;32;20168;-49
2023/03/21 11:03:36;;;;;;;0.77;0.77;;;;;;;14.43;58.24;95463.34;4357090;32;20185;-51
2023/03/21 11:06:05;;;;;;;0.97;0.97;;;;;;;14.60;57.33;95467.13;4351231;32;20195;-49
2023/03/21 11:08:38;;;;;;;0.70;0.70;;;;;;;14.60;57.11;95467.91;4362609;32;20181;-47
2023/03/21 11:11:07;;;;;;;0.67;0.67;;;;;;;14.51;56.70;95464.47;4353962;32;20180;-52
2023/03/21 11:13:40;;;;;;;1.60;1.50;;;;;;;14.28;55.88;95471.81;4356380;32;20192;-48
2023/03/21 11:16:22;;;;;;;9.80;1.37;;;;;;;14.24;56.98;95457.50;4365153;32;20240;-50
2023/03/21 11:18:58;;;;;;;1.00;1.00;;;;;;;14.08;58.09;95461.72;4366086;32;20279;-48
2023/03/21 11:21:26;;;;;;;0.60;0.60;;;;;;;14.04;57.82;95460.78;4367949;32;20214;-46
2023/03/21 11:23:55;;;;;;;0.40;0.40;;;;;;;14.35;56.84;95450.75;4365747;32;20181;-50
2023/03/21 11:26:31;;;;;;;0.70;0.70;;;;;;;14.36;57.34;95446.19;4370156;32;20233;-50
2023/03/21 11:28:57;;;;;;;1.13;1.13;;;;;;;14.34;57.01;95451.84;4367567;32;20180;-56
2023/03/21 11:31:37;;;;;;;2.17;1.60;;;;;;;14.21;57.77;95444.78;4362897;32;20177;-50
2023/03/21 11:34:06;;;;;;;2.30;0.63;;;;;;;14.26;57.16;95441.97;4354922;32;20221;-49
2023/03/21 11:36:40;;;;;;;0.83;0.83;;;;;;;14.43;56.11;95436.66;4349368;32;20189;-49
2023/03/21 11:39:30;;;;;;;1.17;1.07;;;;;;;14.49;55.46;95429.28;4368511;32;20208;-50
2023/03/21 11:41:55;;;;;;;0.60;0.60;;;;;;;14.46;56.27;95435.25;4365388;32;20181;-48
2023/03/21 11:44:33;;;;;;;0.93;0.93;;;;;;;14.27;56.65;95421.41;4363560;32;20239;-50
2023/03/21 11:46:58;;;;;;;0.40;0.40;;;;;;;14.42;56.68;95421.75;4364006;32;20181;-50